KGVT/GVT METAR and TAF weather

Enter ICAO airport designator
Station Type Date Time Source
KGVT METAR 2022/06/27 17:15 UTC NOAA

KGVT 271715Z AUTO 03008KT 10SM BKN031 30/21 A3019 RMK AO2 TSNO T03020214


Station Type Date Time Source
KGVT Decoded METAR 2022/06/27 17:15 UTC NOAA

Greenville / Majors, TX, United States (KGVT) 33-04N 096-04W
Jun 27, 2022 - 01:15 PM EDT / 2022.06.27 1715 UTC
Wind: from the NNE (030 degrees) at 9 MPH (8 KT):0
Visibility: 10 mile(s):0
Sky conditions: mostly cloudy
Temperature: 86.4 F (30.2 C)
Heat index: 91.6 F (33.1 C):1
Dew Point: 70.5 F (21.4 C)
Relative Humidity: 59%
Pressure (altimeter): 30.19 in. Hg (1022 hPa)
ob: KGVT 271715Z AUTO 03008KT 10SM BKN031 30/21 A3019 RMK AO2 TSNO T03020214
cycle: 17

Station Type Date Time Source
KGVT TAF UTC NOAA

Error!

Example: see airport list